Página principal
METAR-TAF:

METAR-TAF

Aeroportos :

Aeroporto Federico García Lorca Granada-Jaén

Granada, Espanha

latitude: 37-11N, longitude: 003-47W, altura: 567 m

Observação actual do tempo

O boletim foi feito há 27 minutos, às 12:30 UTC
Vento 3 kt de nor-noroeste, variando entre oes-sudoeste e nordeste
Temperatura 34°C
Humidade 19%
Pressão 1022 hPa
Visibilidade 10 km ou mais
Poucas nuvensa uma altura de 7000 ft

METAR: LEGR 071230Z 33003KT 240V040 9999 FEW070 34/07 Q1022

Hora: 14:57 (12:57 UTC)

Previsão

O boletim foi feito há 1 hora e 57 minutos, às 11:00 UTC
Previsão válida de 07 às 12 UTC a 08 às 12 UTC
Vento 2 kt com direcção variável
Visibilidade 10 km ou mais
sem nuvens abaixo de 1500 metros e sem cumulonimbus
Tornando-se
de 07 às 14 UTC a 07 às 17 UTC
Vento 11 kt de sul
Tornando-se
de 07 às 22 UTC a 07 às 24 UTC
Vento 2 kt com direcção variável

TAF: LEGR 071100Z 0712/0812 VRB02KT CAVOK TX37/0716Z TN18/0805Z BECMG 0714/0717 19011KT BECMG 0722/0724 VRB02KT

Observações e previsões do tempo de mais de 4000 aeroportos (mensagens METAR e TAF).

As estações disponíveis são os pontos amarelos e vermelhos sobre o mapa.

Mova o rato sobre o mapa para ver o nome da estação.

Depois clique no ponto para visualizar as observações e previsões meteorológicas.

Para alterar o mapa : clique nos botões verdes com uma cruz preta para aumentar o zoom; no botão verde com uma pitada de zoom; ou nas setas verdes para mapas adjacentes.


METAR-TAF: